createdAt,value
2022-09-28T00:05:33.816Z,1.80
2022-09-28T00:08:01.107Z,1.77
2022-09-28T00:10:30.504Z,2.25
2022-09-28T00:13:01.736Z,1.63
2022-09-28T00:15:28.410Z,2.53
2022-09-28T00:17:55.612Z,1.90
2022-09-28T00:20:26.901Z,2.15
2022-09-28T00:22:58.133Z,1.85
2022-09-28T00:25:28.416Z,2.13
2022-09-28T00:28:08.176Z,1.63
2022-09-28T00:30:36.227Z,1.73
2022-09-28T00:33:02.875Z,1.80
2022-09-28T00:35:29.732Z,1.55
2022-09-28T00:37:59.090Z,1.63
2022-09-28T00:43:19.430Z,1.75
2022-09-28T00:46:06.993Z,1.88
2022-09-28T00:48:41.346Z,1.90
2022-09-28T00:53:48.328Z,1.65
2022-09-28T00:56:34.829Z,2.05
2022-09-28T00:59:14.065Z,1.70
2022-09-28T01:04:37.739Z,1.80
2022-09-28T01:07:10.656Z,1.50
2022-09-28T01:09:40.405Z,2.22
2022-09-28T01:12:08.169Z,2.28
2022-09-28T01:14:35.154Z,2.47
2022-09-28T01:37:56.466Z,1.80
2022-09-28T01:43:50.358Z,2.97
2022-09-28T01:46:50.408Z,1.80
2022-09-28T01:52:41.227Z,2.10
2022-09-28T01:55:28.178Z,2.42
2022-09-28T01:58:00.783Z,1.80
2022-09-28T02:00:28.713Z,3.75
2022-09-28T02:03:10.788Z,1.95
2022-09-28T02:05:50.320Z,1.80
2022-09-28T02:08:30.499Z,2.03
2022-09-28T02:11:14.027Z,2.40
2022-09-28T02:14:01.918Z,2.45
2022-09-28T02:17:00.386Z,2.22
2022-09-28T02:19:39.459Z,2.30
2022-09-28T02:22:45.855Z,3.03
2022-09-28T02:25:50.573Z,3.40
2022-09-28T02:28:21.152Z,3.42
2022-09-28T02:30:49.502Z,2.95
2022-09-28T02:43:08.671Z,3.20
2022-09-28T02:50:04.121Z,5.10
2022-09-28T02:53:06.591Z,3.42
2022-09-28T02:56:11.991Z,3.03
2022-09-28T02:59:16.204Z,6.03
2022-09-28T03:02:00.854Z,5.03
2022-09-28T03:07:51.751Z,4.28
2022-09-28T03:11:10.285Z,4.78
2022-09-28T03:13:53.623Z,3.85
2022-09-28T03:19:49.123Z,3.90
2022-09-28T03:22:17.093Z,3.80
2022-09-28T03:24:52.652Z,4.15
2022-09-28T03:27:52.175Z,4.68
2022-09-28T03:33:19.710Z,5.32
2022-09-28T03:35:59.782Z,5.28
2022-09-28T03:38:39.735Z,4.88
2022-09-28T03:47:02.996Z,4.90
2022-09-28T03:52:16.167Z,4.93
2022-09-28T03:54:46.960Z,5.15
2022-09-28T03:57:23.275Z,5.07
2022-09-28T04:02:19.398Z,7.07
2022-09-28T04:04:49.121Z,6.15
2022-09-28T04:07:15.797Z,7.63
2022-09-28T04:09:42.453Z,6.93
2022-09-28T04:12:10.893Z,6.18
2022-09-28T04:14:37.480Z,6.85
2022-09-28T04:17:08.415Z,8.38
2022-09-28T04:19:35.126Z,8.50
2022-09-28T04:22:04.940Z,7.57
2022-09-28T04:24:34.639Z,8.15
2022-09-28T04:27:25.090Z,9.13
2022-09-28T04:29:51.957Z,7.13
2022-09-28T04:32:25.418Z,8.45
2022-09-28T04:34:54.154Z,8.33
2022-09-28T04:37:22.759Z,8.35
2022-09-28T04:39:49.435Z,8.60
2022-09-28T04:42:43.367Z,10.57
2022-09-28T04:45:13.909Z,9.57
2022-09-28T04:47:40.873Z,12.98
2022-09-28T04:50:14.732Z,10.77
2022-09-28T04:52:43.221Z,9.90
2022-09-28T04:55:13.484Z,10.38
2022-09-28T04:57:41.027Z,11.23
2022-09-28T05:00:09.845Z,13.50
2022-09-28T05:02:51.551Z,12.85
2022-09-28T05:08:09.703Z,11.13
2022-09-28T05:10:40.808Z,12.98
2022-09-28T05:13:21.313Z,12.18
2022-09-28T05:15:57.036Z,13.50
2022-09-28T05:18:28.023Z,12.45
2022-09-28T05:20:54.923Z,13.10
2022-09-28T05:23:21.839Z,13.20
2022-09-28T05:25:48.726Z,12.75
2022-09-28T05:28:24.083Z,16.70
2022-09-28T05:30:50.745Z,13.93
2022-09-28T05:33:17.497Z,12.32
2022-09-28T05:35:52.383Z,15.38
2022-09-28T05:38:20.649Z,11.85
2022-09-28T05:40:50.267Z,15.07
2022-09-28T05:43:17.569Z,14.23
2022-09-28T05:45:44.364Z,12.68
2022-09-28T05:48:11.166Z,12.57
2022-09-28T05:50:41.783Z,10.55
2022-09-28T05:53:10.796Z,10.40
2022-09-28T05:55:40.822Z,11.05
2022-09-28T05:58:09.046Z,11.27
2022-09-28T06:00:36.496Z,10.13
2022-09-28T06:03:09.642Z,10.60
2022-09-28T06:05:37.849Z,9.23
2022-09-28T06:08:06.786Z,9.82
2022-09-28T06:10:34.489Z,9.60
2022-09-28T06:13:01.923Z,9.98
2022-09-28T06:15:31.775Z,10.00
2022-09-28T06:17:59.591Z,11.05
2022-09-28T06:23:11.347Z,9.65
2022-09-28T06:25:43.054Z,10.57
2022-09-28T06:28:13.191Z,11.02
2022-09-28T06:30:41.595Z,11.13
2022-09-28T06:33:15.016Z,11.65
2022-09-28T06:35:42.499Z,10.65
2022-09-28T06:38:09.771Z,10.88
2022-09-28T06:40:36.734Z,10.18
2022-09-28T06:43:10.138Z,9.05
2022-09-28T06:45:38.232Z,12.60
2022-09-28T06:48:05.772Z,12.15
2022-09-28T06:50:37.493Z,21.35
2022-09-28T06:53:09.350Z,14.38
2022-09-28T06:55:39.229Z,11.93
2022-09-28T06:58:09.761Z,21.75
2022-09-28T07:00:38.199Z,13.55
2022-09-28T07:03:07.691Z,18.17
2022-09-28T07:05:37.004Z,11.25
2022-09-28T07:08:04.835Z,9.57
2022-09-28T07:10:32.656Z,12.68
2022-09-28T07:13:04.996Z,12.23
2022-09-28T07:15:32.598Z,10.50
2022-09-28T07:18:03.486Z,9.68
2022-09-28T07:20:31.733Z,8.20
2022-09-28T07:23:13.025Z,14.30
2022-09-28T07:25:47.963Z,8.63
2022-09-28T07:28:16.008Z,8.15
2022-09-28T07:30:44.275Z,8.02
2022-09-28T07:33:14.557Z,7.28
2022-09-28T07:35:42.956Z,7.38
2022-09-28T07:38:10.745Z,8.73
2022-09-28T07:40:56.184Z,9.35
2022-09-28T07:43:23.163Z,8.38
2022-09-28T07:45:52.599Z,11.75
2022-09-28T07:48:20.149Z,7.50
2022-09-28T07:51:00.055Z,9.10
2022-09-28T07:53:26.841Z,10.43
2022-09-28T07:56:08.720Z,11.02
2022-09-28T07:58:37.608Z,10.93
2022-09-28T08:01:10.415Z,9.40
2022-09-28T08:03:38.621Z,10.05
2022-09-28T08:06:07.621Z,8.32
2022-09-28T08:08:35.079Z,9.98
2022-09-28T08:11:02.849Z,9.55
2022-09-28T08:21:12.599Z,7.88
2022-09-28T08:23:39.272Z,4.65
2022-09-28T08:26:06.078Z,4.07
2022-09-28T08:28:35.037Z,5.32
2022-09-28T08:31:02.018Z,3.60
2022-09-28T08:33:28.965Z,4.15
2022-09-28T08:36:01.466Z,5.63
2022-09-28T08:38:30.936Z,4.32
2022-09-28T08:41:05.924Z,3.53
2022-09-28T08:43:48.251Z,3.42
2022-09-28T08:46:22.697Z,3.65
2022-09-28T08:49:26.120Z,4.93
2022-09-28T08:52:03.116Z,2.00
2022-09-28T08:54:49.536Z,3.30
2022-09-28T08:57:18.354Z,2.20
2022-09-28T08:59:51.367Z,2.55
2022-09-28T09:02:22.775Z,2.63
2022-09-28T09:04:52.073Z,2.55
2022-09-28T09:07:46.252Z,3.00
2022-09-28T09:10:21.953Z,2.40
2022-09-28T09:12:54.609Z,2.90
2022-09-28T09:15:28.561Z,3.75
2022-09-28T09:18:32.512Z,2.60
2022-09-28T09:21:09.016Z,2.75
2022-09-28T09:23:53.090Z,2.30
2022-09-28T09:26:25.995Z,2.40
2022-09-28T09:29:22.124Z,3.65
2022-09-28T09:32:14.587Z,3.17
2022-09-28T09:35:05.608Z,3.00
2022-09-28T09:37:48.774Z,2.83
2022-09-28T09:40:30.537Z,3.63
2022-09-28T09:43:05.322Z,2.42
2022-09-28T09:46:00.377Z,2.88
2022-09-28T09:48:37.645Z,2.35
2022-09-28T09:51:18.233Z,2.63
2022-09-28T09:53:52.515Z,2.35
2022-09-28T09:56:46.993Z,2.30
2022-09-28T09:59:24.281Z,4.63
2022-09-28T10:01:53.383Z,2.35
2022-09-28T10:04:55.149Z,3.78
2022-09-28T10:07:50.085Z,3.25
2022-09-28T10:10:38.858Z,2.80
2022-09-28T10:13:05.678Z,2.63
2022-09-28T10:15:35.419Z,3.95
2022-09-28T10:18:09.618Z,2.88
2022-09-28T10:20:40.741Z,2.35
2022-09-28T10:23:16.079Z,2.17
2022-09-28T10:25:45.230Z,2.95
2022-09-28T10:28:18.088Z,2.35
2022-09-28T10:30:45.126Z,1.70
2022-09-28T10:33:30.862Z,1.70
2022-09-28T10:35:59.026Z,3.30
2022-09-28T10:38:26.293Z,3.13
2022-09-28T10:40:55.381Z,2.58
2022-09-28T11:09:44.598Z,2.88
2022-09-28T11:12:42.711Z,5.07
2022-09-28T11:15:18.657Z,2.60
2022-09-28T11:17:45.835Z,2.25
2022-09-28T11:20:27.924Z,2.20
2022-09-28T11:23:04.631Z,2.55
2022-09-28T11:25:31.549Z,1.90
2022-09-28T11:28:31.780Z,12.20
2022-09-28T11:31:08.086Z,3.40
2022-09-28T11:33:42.023Z,4.35
2022-09-28T11:36:15.011Z,3.47
2022-09-28T11:39:08.883Z,2.40
2022-09-28T11:41:41.788Z,2.28
2022-09-28T11:44:17.307Z,3.25
2022-09-28T11:47:20.745Z,1.80
2022-09-28T11:49:54.741Z,2.10
2022-09-28T11:55:26.825Z,2.03
2022-09-28T11:58:04.517Z,2.33
2022-09-28T12:00:36.538Z,2.55
2022-09-28T12:03:34.066Z,2.67
2022-09-28T12:06:07.761Z,3.42
2022-09-28T12:08:43.109Z,2.33
2022-09-28T12:11:21.598Z,3.72
2022-09-28T12:13:55.055Z,2.40
2022-09-28T13:21:03.210Z,2.65
2022-09-28T13:23:39.607Z,2.95
2022-09-28T13:26:24.790Z,4.30
2022-09-28T13:28:55.568Z,2.40
2022-09-28T13:31:33.033Z,2.47
2022-09-28T13:34:03.839Z,2.20
2022-09-28T13:36:37.044Z,2.45
2022-09-28T13:39:07.527Z,3.25
2022-09-28T13:41:40.482Z,20.23
2022-09-28T13:44:54.489Z,6.32
2022-09-28T13:50:17.407Z,2.80
2022-09-28T13:52:46.131Z,2.90
2022-09-28T14:06:34.091Z,3.20
2022-09-28T14:09:16.992Z,2.25
2022-09-28T14:11:56.411Z,3.42
2022-09-28T14:14:49.002Z,3.85
2022-09-28T14:17:23.388Z,4.68
2022-09-28T14:20:16.538Z,5.60
2022-09-28T14:23:10.550Z,5.28
2022-09-28T14:25:46.634Z,6.40
2022-09-28T14:29:10.141Z,4.00
2022-09-28T14:31:46.188Z,4.15
2022-09-28T14:34:40.278Z,4.03
2022-09-28T14:37:41.936Z,3.92
2022-09-28T14:44:26.724Z,3.72
2022-09-28T14:47:45.177Z,4.30
2022-09-28T14:50:37.593Z,7.47
2022-09-28T14:53:06.573Z,3.40
2022-09-28T14:55:53.780Z,3.20
2022-09-28T14:58:30.376Z,2.47
2022-09-28T15:01:28.747Z,8.07
2022-09-28T15:04:12.563Z,3.15
2022-09-28T15:06:47.321Z,2.70
2022-09-28T15:09:37.973Z,2.50
2022-09-28T15:12:15.208Z,2.60
2022-09-28T15:15:01.684Z,2.75
2022-09-28T15:20:30.524Z,4.25
2022-09-28T15:22:58.942Z,4.72
2022-09-28T15:25:32.817Z,7.90
2022-09-28T15:28:17.316Z,5.65
2022-09-28T15:30:44.145Z,4.85
2022-09-28T15:33:43.649Z,5.57
2022-09-28T15:36:23.370Z,4.60
2022-09-28T15:39:15.520Z,5.35
2022-09-28T15:44:56.391Z,4.07
2022-09-28T15:47:30.074Z,4.38
2022-09-28T15:50:22.663Z,4.97
2022-09-28T15:53:01.986Z,5.03
2022-09-28T16:02:12.844Z,4.22
2022-09-28T16:05:01.833Z,5.22
2022-09-28T16:07:40.135Z,3.60
2022-09-28T16:10:18.557Z,3.55
2022-09-28T16:12:50.632Z,7.75
2022-09-28T16:15:34.485Z,5.20
2022-09-28T16:18:22.189Z,6.38
2022-09-28T16:20:57.747Z,4.72
2022-09-28T16:23:31.783Z,5.32
2022-09-28T16:28:47.412Z,3.38
2022-09-28T16:34:22.948Z,5.90
2022-09-28T16:36:55.172Z,4.60
2022-09-28T16:39:25.869Z,3.78
2022-09-28T16:41:56.697Z,4.07
2022-09-28T16:44:30.243Z,5.53
2022-09-28T16:47:02.663Z,5.57
2022-09-28T16:49:38.052Z,6.03
2022-09-28T16:52:14.834Z,6.55
2022-09-28T16:55:22.768Z,5.50
2022-09-28T16:57:52.522Z,4.72
2022-09-28T17:21:45.825Z,5.85
2022-09-28T17:24:17.119Z,5.30
2022-09-28T17:26:48.943Z,4.10
2022-09-28T17:29:20.671Z,4.85
2022-09-28T17:31:50.363Z,4.25
2022-09-28T17:37:08.374Z,4.25
2022-09-28T17:39:55.980Z,5.43
2022-09-28T17:42:50.809Z,4.03
2022-09-28T17:47:48.015Z,4.80
2022-09-28T17:50:30.637Z,8.07
2022-09-28T17:53:00.115Z,6.15
2022-09-28T17:56:03.941Z,5.38
2022-09-28T17:58:40.243Z,6.05
2022-09-28T18:01:07.259Z,6.85
2022-09-28T18:03:38.834Z,5.13
2022-09-28T18:06:19.580Z,5.32
2022-09-28T18:08:47.581Z,4.57
2022-09-28T18:11:23.724Z,5.07
2022-09-28T18:13:50.529Z,4.45
2022-09-28T18:16:18.207Z,4.13
2022-09-28T18:18:50.079Z,4.20
2022-09-28T18:21:19.899Z,4.40
2022-09-28T18:23:46.969Z,3.63
2022-09-28T18:26:15.743Z,4.93
2022-09-28T18:28:57.226Z,5.45
2022-09-28T18:31:29.948Z,4.45
2022-09-28T18:34:03.513Z,6.60
2022-09-28T18:36:31.888Z,6.00
2022-09-28T18:39:02.877Z,5.28
2022-09-28T18:41:42.067Z,5.30
2022-09-28T18:44:15.309Z,7.45
2022-09-28T18:46:50.731Z,7.97
2022-09-28T18:49:26.122Z,10.35
2022-09-28T18:51:53.264Z,11.40
2022-09-28T18:54:31.501Z,9.25
2022-09-28T19:00:07.570Z,7.93
2022-09-28T19:00:13.647Z,8.93
2022-09-28T19:02:39.710Z,8.68
2022-09-28T19:05:15.783Z,8.93
2022-09-28T19:07:45.511Z,9.50
2022-09-28T19:10:14.601Z,9.63
2022-09-28T19:12:44.831Z,12.40
2022-09-28T19:15:13.130Z,9.77
2022-09-28T19:17:43.840Z,8.73
2022-09-28T19:20:20.296Z,9.20
2022-09-28T19:22:50.575Z,8.23
2022-09-28T19:25:22.107Z,9.38
2022-09-28T19:27:49.544Z,10.05
2022-09-28T19:30:16.411Z,9.98
2022-09-28T19:32:43.170Z,8.93
2022-09-28T19:35:15.916Z,10.68
2022-09-28T19:37:45.954Z,9.48
2022-09-28T19:40:36.854Z,9.27
2022-09-28T19:43:05.207Z,8.98
2022-09-28T19:45:35.485Z,9.27
2022-09-28T19:48:03.167Z,9.57
2022-09-28T19:50:29.799Z,9.10
2022-09-28T19:53:01.906Z,9.23
2022-09-28T19:55:31.946Z,8.50
2022-09-28T19:58:02.088Z,9.18
2022-09-28T20:00:28.830Z,9.40
2022-09-28T20:03:02.310Z,10.23
2022-09-28T20:05:28.966Z,9.73
2022-09-28T20:07:55.636Z,9.60
2022-09-28T20:10:22.281Z,9.15
2022-09-28T20:12:49.243Z,9.40
2022-09-28T20:15:16.687Z,9.93
2022-09-28T20:17:43.303Z,13.32
2022-09-28T20:20:10.103Z,10.13
2022-09-28T20:22:37.326Z,10.73
2022-09-28T20:25:04.344Z,10.43
2022-09-28T20:27:33.186Z,8.40
2022-09-28T20:29:59.794Z,7.15
2022-09-28T20:32:26.426Z,8.18
2022-09-28T20:34:53.245Z,7.47
2022-09-28T20:37:19.855Z,8.18
2022-09-28T20:39:46.498Z,8.95
2022-09-28T20:42:15.606Z,9.55
2022-09-28T20:44:45.855Z,10.30
2022-09-28T20:47:12.784Z,9.65
2022-09-28T20:49:39.422Z,9.32
2022-09-28T20:52:06.113Z,8.50
2022-09-28T20:54:32.844Z,8.75
2022-09-28T20:56:59.444Z,8.70
2022-09-28T20:59:27.714Z,9.25
2022-09-28T21:01:54.439Z,8.73
2022-09-28T21:04:21.332Z,8.73
2022-09-28T21:06:48.144Z,8.75
2022-09-28T21:09:14.880Z,9.07
2022-09-28T21:11:41.750Z,10.25
2022-09-28T21:14:10.417Z,8.35
2022-09-28T21:16:38.053Z,8.38
2022-09-28T21:19:04.861Z,8.85
2022-09-28T21:21:34.909Z,9.35
2022-09-28T21:24:02.204Z,11.80
2022-09-28T21:26:31.666Z,9.82
2022-09-28T21:29:07.425Z,9.93
2022-09-28T21:32:01.035Z,8.07
2022-09-28T21:34:27.633Z,7.43
2022-09-28T21:36:54.777Z,7.13
2022-09-28T21:39:21.487Z,7.47
2022-09-28T21:41:48.352Z,7.55
2022-09-28T21:44:15.065Z,8.25
2022-09-28T21:46:44.771Z,7.85
2022-09-28T21:49:12.761Z,8.00
2022-09-28T21:51:39.427Z,6.78
2022-09-28T21:54:06.190Z,6.70
2022-09-28T21:56:32.763Z,7.53
2022-09-28T21:59:01.367Z,6.75
2022-09-28T22:01:29.201Z,6.60
2022-09-28T22:03:56.693Z,6.68
2022-09-28T22:06:27.874Z,7.78
2022-09-28T22:08:54.829Z,6.93
2022-09-28T22:11:24.268Z,6.88
2022-09-28T22:13:53.591Z,6.38
2022-09-28T22:16:22.158Z,6.85
2022-09-28T22:18:49.399Z,7.40
2022-09-28T22:21:28.180Z,7.35
2022-09-28T22:23:58.392Z,8.45
2022-09-28T22:26:26.254Z,7.53
2022-09-28T22:28:55.610Z,7.40
2022-09-28T22:31:29.355Z,7.97
2022-09-28T22:33:56.704Z,6.97
2022-09-28T22:36:23.485Z,8.63
2022-09-28T22:38:50.185Z,7.75
2022-09-28T22:41:20.682Z,6.68
2022-09-28T22:43:48.819Z,5.95
2022-09-28T22:46:17.917Z,6.28
2022-09-28T22:48:49.576Z,6.50
2022-09-28T22:51:16.790Z,6.13
2022-09-28T22:53:43.833Z,7.13
2022-09-28T22:56:15.943Z,6.55
2022-09-28T22:58:45.004Z,7.05
2022-09-28T23:01:13.307Z,7.20
2022-09-28T23:03:40.511Z,6.70
2022-09-28T23:06:08.412Z,8.02
2022-09-28T23:08:35.732Z,7.07
2022-09-28T23:11:02.468Z,6.72
2022-09-28T23:13:31.047Z,7.35
2022-09-28T23:15:59.267Z,7.13
2022-09-28T23:18:28.705Z,6.90
2022-09-28T23:21:04.363Z,6.75
2022-09-28T23:23:31.737Z,6.78
2022-09-28T23:25:58.799Z,6.30
2022-09-28T23:28:26.789Z,6.25
2022-09-28T23:30:53.847Z,6.15
2022-09-28T23:33:23.795Z,6.63
2022-09-28T23:35:50.325Z,6.75
2022-09-28T23:38:18.485Z,6.25
2022-09-28T23:40:46.592Z,6.53
2022-09-28T23:43:14.409Z,6.20
2022-09-28T23:45:43.509Z,6.25
2022-09-28T23:48:10.529Z,6.20
2022-09-28T23:50:37.264Z,6.43
2022-09-28T23:53:04.038Z,5.78
2022-09-28T23:55:30.591Z,5.68
2022-09-28T23:57:58.730Z,6.25
